Time;durP1;ratioP1;P1;durP2;ratioP2;P2;SDS_P1;SDS_P2;PMS_P1;PMS_P2;Temp;Humidity;BMP_temperature;BMP_pressure;BME280_temperature;BME280_humidity;BME280_pressure;Samples;Min_cycle;Max_cycle;Signal;HPM_P1;HPM_P2
2020/12/08 03:48:05;;;;;;;19.40;8.80;;;0.00;99.90;;;;;;5062710;23;88429;-82
2020/12/08 03:50:31;;;;;;;19.35;9.10;;;0.00;99.90;;;;;;4899358;28;86968;-82
2020/12/08 03:52:57;;;;;;;18.55;9.18;;;0.00;99.90;;;;;;4904742;28;86341;-83
2020/12/08 03:55:23;;;;;;;18.20;8.82;;;0.00;99.90;;;;;;4878593;28;90634;-82
2020/12/08 03:57:48;;;;;;;18.85;9.07;;;0.10;99.90;;;;;;4901992;28;86915;-82
2020/12/08 04:00:14;;;;;;;16.10;8.52;;;0.10;99.90;;;;;;4895794;28;87847;-83
2020/12/08 04:02:40;;;;;;;17.83;8.57;;;0.10;99.90;;;;;;4892537;28;86866;-82
2020/12/08 04:05:06;;;;;;;14.10;8.95;;;0.10;99.90;;;;;;4899709;28;88182;-82
2020/12/08 04:07:32;;;;;;;17.20;8.73;;;0.10;99.90;;;;;;4900436;28;86709;-82
2020/12/08 04:09:57;;;;;;;17.38;8.07;;;0.10;99.90;;;;;;4895270;28;87044;-82
2020/12/08 04:12:23;;;;;;;17.50;9.27;;;0.70;99.90;;;;;;4893722;28;87079;-82
2020/12/08 04:14:49;;;;;;;16.15;8.27;;;0.10;99.90;;;;;;4896342;28;87180;-82
2020/12/08 04:17:19;;;;;;;18.17;8.57;;;0.10;99.90;;;;;;4890564;28;87378;-82
2020/12/08 04:19:45;;;;;;;17.00;8.50;;;0.20;99.90;;;;;;4896519;28;87348;-82
2020/12/08 04:22:11;;;;;;;16.30;8.90;;;0.20;99.90;;;;;;4901148;28;87115;-82
2020/12/08 04:24:37;;;;;;;17.35;8.20;;;0.20;99.90;;;;;;4899424;28;87931;-82
2020/12/08 04:27:03;;;;;;;16.75;8.27;;;0.20;99.90;;;;;;4906586;28;88008;-82
2020/12/08 04:29:28;;;;;;;17.83;8.25;;;0.10;99.90;;;;;;4891069;28;86600;-82
2020/12/08 04:31:55;;;;;;;17.90;8.95;;;0.20;99.90;;;;;;4889442;28;86290;-82
2020/12/08 04:34:20;;;;;;;13.57;7.43;;;0.20;99.90;;;;;;4888047;28;88373;-83
2020/12/08 04:36:47;;;;;;;21.80;9.00;;;0.20;99.90;;;;;;4902996;28;87092;-82
2020/12/08 04:39:12;;;;;;;17.15;8.48;;;0.20;99.90;;;;;;4894517;28;86910;-82
2020/12/08 04:41:38;;;;;;;18.38;8.75;;;0.20;99.90;;;;;;4890933;28;86408;-82
2020/12/08 04:44:05;;;;;;;17.05;8.95;;;0.10;99.90;;;;;;4871791;28;88867;-82
2020/12/08 04:46:31;;;;;;;17.65;8.60;;;0.30;99.90;;;;;;4889453;28;87020;-83
2020/12/08 04:48:57;;;;;;;18.00;8.25;;;0.30;99.90;;;;;;4888346;28;87833;-83
2020/12/08 04:51:22;;;;;;;17.95;8.20;;;0.30;99.90;;;;;;4889454;28;86811;-83
2020/12/08 04:53:52;;;;;;;20.52;8.60;;;0.40;99.90;;;;;;4887768;28;87095;-83
2020/12/08 04:56:17;;;;;;;17.98;9.20;;;0.40;99.90;;;;;;4892681;28;87071;-83
2020/12/08 04:58:43;;;;;;;16.80;8.20;;;0.40;99.90;;;;;;4893395;28;86927;-82
2020/12/08 05:01:23;;;;;;;17.75;8.35;;;0.40;99.90;;;;;;4894915;28;86840;-82
2020/12/08 05:04:02;;;;;;;21.13;9.05;;;0.40;99.90;;;;;;4873837;28;89710;-83
2020/12/08 05:06:28;;;;;;;17.10;7.82;;;0.50;99.90;;;;;;4874343;28;87500;-82
2020/12/08 05:09:05;;;;;;;16.83;8.02;;;0.50;99.90;;;;;;4886660;28;86837;-82
2020/12/08 05:11:31;;;;;;;19.00;8.32;;;0.60;99.90;;;;;;4888528;28;87011;-81
2020/12/08 05:14:02;;;;;;;17.48;7.80;;;0.60;99.90;;;;;;4887268;28;87731;-83
2020/12/08 05:16:28;;;;;;;22.33;9.80;;;0.60;99.90;;;;;;4889851;28;88636;-83
2020/12/08 05:19:08;;;;;;;17.50;8.27;;;0.60;99.90;;;;;;4887960;28;87136;-82
2020/12/08 05:21:34;;;;;;;15.32;7.78;;;0.60;99.90;;;;;;4879103;28;87222;-82
2020/12/08 05:24:00;;;;;;;18.48;9.20;;;0.60;99.90;;;;;;4884607;28;87265;-82
2020/12/08 05:26:28;;;;;;;17.83;8.20;;;0.50;99.90;;;;;;4887247;28;88078;-83
2020/12/08 05:29:00;;;;;;;16.23;8.80;;;0.50;99.90;;;;;;4887663;28;87028;-83
2020/12/08 05:31:27;;;;;;;18.38;8.15;;;0.60;99.90;;;;;;4889615;28;86236;-82
2020/12/08 05:33:59;;;;;;;16.60;9.05;;;0.50;99.90;;;;;;4888221;28;86845;-82
2020/12/08 05:36:27;;;;;;;13.48;7.22;;;0.60;99.90;;;;;;4888317;28;86997;-82
2020/12/08 05:39:00;;;;;;;15.05;8.00;;;0.50;99.90;;;;;;4887405;28;87820;-82
2020/12/08 05:41:30;;;;;;;15.82;8.30;;;0.50;99.90;;;;;;4888085;28;86941;-82
2020/12/08 05:44:05;;;;;;;18.48;9.13;;;0.50;99.90;;;;;;4887246;28;86930;-82
2020/12/08 05:46:41;;;;;;;16.92;10.30;;;0.60;99.90;;;;;;4884675;28;89489;-83
2020/12/08 05:49:10;;;;;;;18.23;9.00;;;0.40;99.90;;;;;;4887532;28;86764;-82
2020/12/08 05:51:46;;;;;;;16.15;9.25;;;0.60;99.90;;;;;;4888311;28;86992;-83
2020/12/08 05:54:20;;;;;;;18.73;9.07;;;0.70;99.90;;;;;;4887567;28;87026;-83
2020/12/08 05:56:53;;;;;;;17.55;8.68;;;0.60;99.90;;;;;;4887775;28;86264;-83
2020/12/08 05:59:29;;;;;;;20.10;8.63;;;0.70;99.90;;;;;;4874826;28;87432;-82
2020/12/08 06:01:55;;;;;;;17.13;8.48;;;0.70;99.90;;;;;;4886304;28;86505;-82
2020/12/08 06:04:20;;;;;;;18.40;9.00;;;0.70;99.90;;;;;;4882595;28;88182;-82
2020/12/08 06:06:47;;;;;;;20.15;10.52;;;0.70;99.90;;;;;;4888591;28;88068;-82
2020/12/08 06:09:30;;;;;;;17.35;10.05;;;0.70;99.90;;;;;;4887682;28;86595;-82
2020/12/08 06:11:56;;;;;;;21.10;10.82;;;0.80;99.90;;;;;;4886930;28;87137;-82
2020/12/08 06:14:39;;;;;;;17.63;9.10;;;0.80;99.90;;;;;;4886270;28;87265;-82
2020/12/08 06:17:08;;;;;;;20.00;9.77;;;0.80;99.90;;;;;;4886298;28;88636;-82
2020/12/08 06:19:35;;;;;;;19.33;11.10;;;1.30;99.90;;;;;;4887429;28;86927;-82
2020/12/08 06:22:10;;;;;;;19.35;9.75;;;0.70;99.90;;;;;;4887924;28;86144;-82
2020/12/08 06:24:35;;;;;;;20.65;9.88;;;0.80;99.90;;;;;;4883055;28;87634;-82
2020/12/08 06:27:01;;;;;;;18.98;9.32;;;0.90;99.90;;;;;;4883445;28;87463;-82
2020/12/08 06:29:27;;;;;;;19.55;9.65;;;0.90;99.90;;;;;;4884443;28;87813;-82
2020/12/08 06:31:52;;;;;;;18.60;8.68;;;0.90;99.90;;;;;;4891339;28;86760;-83
2020/12/08 06:34:25;;;;;;;18.15;9.63;;;0.90;99.90;;;;;;4886823;28;86967;-82
2020/12/08 06:36:52;;;;;;;18.67;10.48;;;1.00;99.90;;;;;;4891986;28;87391;-83
2020/12/08 06:39:18;;;;;;;19.52;10.43;;;1.00;99.90;;;;;;4878737;28;86801;-83
2020/12/08 06:41:45;;;;;;;19.23;10.50;;;1.00;99.90;;;;;;4889894;28;86878;-83
2020/12/08 06:44:17;;;;;;;17.42;9.82;;;1.00;99.90;;;;;;4889018;28;87163;-82
2020/12/08 06:47:09;;;;;;;22.42;10.55;;;1.00;99.90;;;;;;4891416;28;89053;-82
2020/12/08 06:49:38;;;;;;;21.92;11.02;;;1.00;99.90;;;;;;4905128;28;87067;-82
2020/12/08 06:52:08;;;;;;;20.80;10.68;;;1.00;99.90;;;;;;4908298;28;86652;-82
2020/12/08 06:54:34;;;;;;;20.67;11.93;;;1.10;99.90;;;;;;4903438;28;89047;-82
2020/12/08 06:57:06;;;;;;;21.52;11.68;;;1.30;99.90;;;;;;4906407;28;87906;-82
2020/12/08 06:59:32;;;;;;;19.13;11.15;;;1.40;99.90;;;;;;4905948;28;87651;-82
2020/12/08 07:01:59;;;;;;;25.42;12.95;;;1.00;99.90;;;;;;4906940;28;87272;-82
2020/12/08 07:04:29;;;;;;;25.05;12.13;;;1.00;99.90;;;;;;4907072;28;87110;-82
2020/12/08 07:06:58;;;;;;;25.08;14.32;;;0.90;99.90;;;;;;4890569;28;87514;-83
2020/12/08 07:09:24;;;;;;;25.80;13.20;;;0.90;99.90;;;;;;4905877;28;86999;-82
2020/12/08 07:12:02;;;;;;;25.85;12.65;;;0.90;99.90;;;;;;4908965;28;86160;-83
2020/12/08 07:14:29;;;;;;;26.35;13.38;;;1.10;99.90;;;;;;4904899;28;88284;-82
2020/12/08 07:16:55;;;;;;;25.90;13.07;;;0.90;99.90;;;;;;4907333;28;87094;-82
2020/12/08 07:19:20;;;;;;;25.52;13.98;;;0.80;99.90;;;;;;4903728;28;88892;-83
2020/12/08 07:22:00;;;;;;;24.70;14.05;;;1.40;99.90;;;;;;4905661;28;87017;-82
2020/12/08 07:24:26;;;;;;;24.50;11.73;;;1.10;99.90;;;;;;4907039;28;87463;-82
2020/12/08 07:27:00;;;;;;;26.98;12.75;;;1.10;99.90;;;;;;4905202;28;86864;-82
2020/12/08 07:29:26;;;;;;;26.25;13.80;;;0.90;99.90;;;;;;4886743;28;86857;-82
2020/12/08 07:31:52;;;;;;;29.42;14.27;;;1.20;99.90;;;;;;4909897;28;86824;-81
2020/12/08 07:34:18;;;;;;;28.13;13.73;;;0.90;99.90;;;;;;4907701;28;87987;-82
2020/12/08 07:36:43;;;;;;;25.08;13.80;;;1.40;99.90;;;;;;4908962;28;86965;-81
2020/12/08 07:39:17;;;;;;;29.95;14.88;;;1.30;99.90;;;;;;4887949;28;87035;-80
2020/12/08 07:41:43;;;;;;;35.25;15.93;;;1.20;99.90;;;;;;4908372;28;86665;-81
2020/12/08 07:44:13;;;;;;;26.40;14.35;;;1.10;99.90;;;;;;4905996;28;87926;-81
2020/12/08 07:46:51;;;;;;;32.95;14.88;;;1.20;99.90;;;;;;4908156;28;88817;-82
2020/12/08 07:49:17;;;;;;;29.23;15.82;;;1.80;99.90;;;;;;4905714;28;86619;-82
2020/12/08 07:51:43;;;;;;;30.42;13.90;;;1.30;99.90;;;;;;4909083;28;87092;-82
2020/12/08 07:54:09;;;;;;;27.08;14.10;;;1.30;99.90;;;;;;4907235;28;87964;-82
2020/12/08 07:56:37;;;;;;;31.92;14.65;;;2.00;99.90;;;;;;4906959;28;86971;-81
2020/12/08 07:59:04;;;;;;;29.77;14.70;;;1.10;99.90;;;;;;4909264;28;86847;-82
2020/12/08 08:01:41;;;;;;;30.00;14.38;;;1.50;99.90;;;;;;4907123;28;86333;-81
2020/12/08 08:04:07;;;;;;;33.38;17.10;;;1.80;99.90;;;;;;4910733;28;86576;-81
2020/12/08 08:06:33;;;;;;;29.25;14.50;;;1.60;99.90;;;;;;4918728;28;87502;-80
2020/12/08 08:08:59;;;;;;;25.95;13.77;;;1.70;99.90;;;;;;4918168;28;87998;-80
2020/12/08 08:11:25;;;;;;;28.10;14.57;;;1.80;99.90;;;;;;4905976;28;87144;-83
2020/12/08 08:13:50;;;;;;;29.25;13.80;;;1.80;99.90;;;;;;4915693;28;86886;-81
2020/12/08 08:16:16;;;;;;;34.13;15.30;;;1.90;99.90;;;;;;4919328;28;86883;-84
2020/12/08 08:18:43;;;;;;;32.40;15.68;;;2.10;99.90;;;;;;4919626;28;86982;-82
2020/12/08 08:21:09;;;;;;;24.85;14.77;;;1.90;99.90;;;;;;4908909;28;86921;-82
2020/12/08 08:23:35;;;;;;;26.55;15.18;;;2.20;99.90;;;;;;4905816;28;88189;-82
2020/12/08 08:26:05;;;;;;;26.42;14.98;;;2.00;99.90;;;;;;4886597;28;90297;-81
2020/12/08 08:28:31;;;;;;;29.27;15.35;;;2.00;99.90;;;;;;4908171;28;87101;-82
2020/12/08 08:30:57;;;;;;;28.95;16.20;;;1.90;99.90;;;;;;4909243;28;86471;-82
2020/12/08 08:33:22;;;;;;;26.30;15.93;;;2.10;99.90;;;;;;4904795;28;88340;-83
2020/12/08 08:35:48;;;;;;;22.38;13.63;;;2.20;99.90;;;;;;4907984;28;88973;-82
2020/12/08 08:38:14;;;;;;;20.65;12.40;;;2.20;99.90;;;;;;4906885;28;87006;-81
2020/12/08 08:40:39;;;;;;;22.55;13.90;;;2.30;99.90;;;;;;4907402;28;87086;-81
2020/12/08 08:43:05;;;;;;;24.25;13.48;;;2.30;99.90;;;;;;4906863;28;87010;-80
2020/12/08 08:45:31;;;;;;;22.23;13.65;;;2.30;99.90;;;;;;4907670;28;87221;-81
2020/12/08 08:47:56;;;;;;;23.55;14.10;;;2.20;99.90;;;;;;4905670;28;86655;-80
2020/12/08 08:50:22;;;;;;;23.33;13.73;;;2.40;99.90;;;;;;4903501;28;86201;-81
2020/12/08 08:52:48;;;;;;;26.13;13.55;;;2.60;99.90;;;;;;4906578;28;88139;-82
2020/12/08 08:55:13;;;;;;;21.60;13.60;;;3.00;99.90;;;;;;4905056;28;87619;-83
2020/12/08 08:57:40;;;;;;;26.63;15.35;;;2.70;99.90;;;;;;4900439;28;88026;-80
2020/12/08 09:00:08;;;;;;;27.20;14.00;;;3.00;99.90;;;;;;4905007;28;86865;-80
2020/12/08 09:02:34;;;;;;;44.13;19.40;;;3.00;99.90;;;;;;4903366;28;87402;-80
2020/12/08 09:05:00;;;;;;;38.80;19.13;;;2.80;99.90;;;;;;4904733;28;87271;-80
2020/12/08 09:07:26;;;;;;;32.10;16.42;;;3.20;99.90;;;;;;4901763;28;86988;-79
2020/12/08 09:09:53;;;;;;;26.80;14.20;;;3.40;99.90;;;;;;4900857;28;86983;-81
2020/12/08 09:12:19;;;;;;;25.83;14.30;;;3.50;99.90;;;;;;4902320;28;87682;-79
2020/12/08 09:14:47;;;;;;;26.95;14.43;;;3.70;99.90;;;;;;4904074;28;87451;-79
2020/12/08 09:17:15;;;;;;;33.35;18.85;;;3.90;99.90;;;;;;4897880;28;87021;-79
2020/12/08 09:19:42;;;;;;;37.10;20.77;;;3.90;99.90;;;;;;4904635;28;86968;-79
2020/12/08 09:22:12;;;;;;;42.83;22.63;;;4.00;99.90;;;;;;4885048;28;91034;-79
2020/12/08 09:24:39;;;;;;;36.47;18.63;;;4.10;99.90;;;;;;4904430;28;88882;-79
2020/12/08 09:27:06;;;;;;;38.67;20.08;;;4.20;99.90;;;;;;4903940;28;86895;-79
2020/12/08 09:29:33;;;;;;;35.72;19.75;;;4.60;99.90;;;;;;4887302;28;87230;-79
2020/12/08 09:31:59;;;;;;;28.90;17.80;;;4.40;99.90;;;;;;4904061;28;87047;-79
2020/12/08 09:34:26;;;;;;;24.38;14.70;;;4.60;99.90;;;;;;4902289;28;87146;-78
2020/12/08 09:36:53;;;;;;;24.58;14.77;;;4.60;99.90;;;;;;4885521;28;87048;-78
2020/12/08 09:39:20;;;;;;;26.63;15.27;;;4.80;99.90;;;;;;4886701;28;86230;-79
2020/12/08 09:41:46;;;;;;;23.88;13.82;;;4.80;99.90;;;;;;4904688;28;87948;-77
2020/12/08 09:44:12;;;;;;;20.95;12.50;;;4.90;99.90;;;;;;4902900;28;86908;-79
2020/12/08 09:46:39;;;;;;;22.33;13.70;;;5.00;99.60;;;;;;4903669;28;87946;-79
2020/12/08 09:49:05;;;;;;;19.92;13.73;;;5.20;97.20;;;;;;4905543;28;86547;-79
2020/12/08 09:51:31;;;;;;;19.48;13.18;;;5.40;96.60;;;;;;4903641;28;89940;-79
2020/12/08 09:53:57;;;;;;;17.02;11.65;;;5.40;96.80;;;;;;4906298;28;86959;-81
2020/12/08 09:56:23;;;;;;;20.58;12.57;;;5.60;93.60;;;;;;4907200;28;87116;-79
2020/12/08 09:58:50;;;;;;;23.95;13.90;;;5.40;92.90;;;;;;4888077;28;87666;-80
2020/12/08 10:01:23;;;;;;;26.17;14.57;;;5.40;91.90;;;;;;4910309;28;87444;-80
2020/12/08 10:03:49;;;;;;;24.33;14.73;;;5.70;92.10;;;;;;4910081;28;87383;-80
2020/12/08 10:06:14;;;;;;;28.35;15.23;;;5.70;92.60;;;;;;4911236;28;86866;-80
2020/12/08 10:08:40;;;;;;;31.15;15.70;;;5.70;92.00;;;;;;4912363;28;87025;-80
2020/12/08 10:11:08;;;;;;;30.23;15.70;;;5.70;93.30;;;;;;4912696;28;87978;-80
2020/12/08 10:13:34;;;;;;;25.35;15.45;;;5.80;93.50;;;;;;4903253;28;87037;-80
2020/12/08 10:16:00;;;;;;;29.50;15.52;;;5.90;91.80;;;;;;4909028;28;87048;-80
2020/12/08 10:18:25;;;;;;;24.33;14.55;;;5.90;92.20;;;;;;4909336;28;87347;-80
2020/12/08 10:20:51;;;;;;;23.05;13.75;;;5.80;92.50;;;;;;4909544;28;87114;-79
2020/12/08 10:23:17;;;;;;;25.48;15.00;;;5.80;92.90;;;;;;4910746;28;87432;-80
2020/12/08 10:25:43;;;;;;;32.90;14.70;;;6.00;93.00;;;;;;4911109;28;87102;-80
2020/12/08 10:28:08;;;;;;;24.15;14.13;;;5.80;93.60;;;;;;4912122;28;86284;-80
2020/12/08 10:30:34;;;;;;;25.67;14.52;;;5.90;93.40;;;;;;4910246;28;86740;-80
2020/12/08 10:33:00;;;;;;;24.08;15.05;;;5.90;93.00;;;;;;4909819;28;86938;-80
2020/12/08 10:35:25;;;;;;;27.65;15.50;;;5.80;92.80;;;;;;4909207;28;87732;-80
2020/12/08 10:37:52;;;;;;;25.80;15.35;;;5.80;91.40;;;;;;4910977;28;86754;-80
2020/12/08 10:40:18;;;;;;;26.75;15.43;;;5.80;91.80;;;;;;4891796;28;90415;-80
2020/12/08 10:42:43;;;;;;;25.80;14.73;;;5.80;91.70;;;;;;4904255;28;86902;-79
2020/12/08 10:45:09;;;;;;;22.63;13.65;;;5.80;91.60;;;;;;4911016;28;86915;-80
2020/12/08 10:47:35;;;;;;;20.15;12.85;;;6.10;90.90;;;;;;4901624;28;86870;-80
2020/12/08 10:50:00;;;;;;;21.23;11.88;;;5.70;91.50;;;;;;4910213;28;87249;-80
2020/12/08 10:52:29;;;;;;;17.83;11.98;;;5.80;90.90;;;;;;4909702;28;86342;-80
2020/12/08 10:54:55;;;;;;;17.63;10.55;;;5.80;91.20;;;;;;4908395;28;87505;-80
2020/12/08 10:57:21;;;;;;;15.60;10.70;;;5.70;91.30;;;;;;4892886;28;87096;-80
2020/12/08 10:59:46;;;;;;;14.10;10.05;;;5.80;91.70;;;;;;4907511;28;88219;-79
2020/12/08 11:02:12;;;;;;;14.55;10.30;;;5.80;91.50;;;;;;4904121;28;88719;-79
2020/12/08 11:04:38;;;;;;;14.98;9.02;;;5.80;91.90;;;;;;4907753;28;86826;-79
2020/12/08 11:07:05;;;;;;;15.23;10.60;;;5.80;91.30;;;;;;4902117;28;86899;-80
2020/12/08 11:09:31;;;;;;;14.07;9.85;;;5.80;90.70;;;;;;4908112;28;86645;-79
2020/12/08 11:11:56;;;;;;;14.32;8.70;;;6.00;90.20;;;;;;4909298;28;86935;-80
2020/12/08 11:14:22;;;;;;;12.57;8.13;;;5.70;90.80;;;;;;4906223;28;86567;-79
2020/12/08 11:16:48;;;;;;;11.90;6.40;;;5.60;91.10;;;;;;4910391;28;86309;-80
2020/12/08 11:19:14;;;;;;;12.00;8.52;;;5.60;91.40;;;;;;4890357;28;88596;-80
2020/12/08 11:21:41;;;;;;;11.63;8.07;;;5.60;92.00;;;;;;4905560;28;87724;-80
2020/12/08 11:24:08;;;;;;;16.08;9.20;;;5.60;92.10;;;;;;4908189;28;87800;-80
2020/12/08 11:26:35;;;;;;;12.13;8.77;;;5.60;91.20;;;;;;4910655;28;86705;-80
2020/12/08 11:29:01;;;;;;;15.63;9.80;;;5.60;91.80;;;;;;4907149;28;87716;-80
2020/12/08 11:31:27;;;;;;;11.75;8.65;;;5.60;91.20;;;;;;4910292;28;87595;-80
2020/12/08 11:33:53;;;;;;;12.60;9.30;;;5.60;91.40;;;;;;4909790;28;87067;-80
2020/12/08 11:36:18;;;;;;;13.13;7.90;;;5.60;90.90;;;;;;4911010;28;87003;-80
2020/12/08 11:38:44;;;;;;;11.68;8.80;;;5.50;91.50;;;;;;4904378;28;86842;-80
2020/12/08 11:41:12;;;;;;;11.50;8.45;;;5.70;90.70;;;;;;4910551;28;86815;-80
2020/12/08 11:43:38;;;;;;;12.05;9.07;;;5.50;91.20;;;;;;4906125;28;87006;-84
2020/12/08 11:46:04;;;;;;;12.05;7.85;;;5.80;90.50;;;;;;4909462;28;86998;-81
2020/12/08 11:48:31;;;;;;;12.88;8.68;;;5.50;90.70;;;;;;4911982;28;87530;-82
2020/12/08 11:50:57;;;;;;;15.35;9.05;;;5.50;90.50;;;;;;4911239;28;87267;-81
2020/12/08 11:53:23;;;;;;;14.30;8.23;;;5.50;90.70;;;;;;4908300;28;87048;-82
2020/12/08 11:55:50;;;;;;;15.60;8.40;;;5.50;91.10;;;;;;4908634;28;86974;-81
2020/12/08 11:58:16;;;;;;;14.40;8.18;;;5.50;91.00;;;;;;4905404;28;87149;-81
2020/12/08 12:00:41;;;;;;;12.93;8.32;;;5.60;90.60;;;;;;4907215;28;87133;-80
2020/12/08 12:03:07;;;;;;;17.23;10.23;;;5.50;90.40;;;;;;4907694;28;87025;-81
2020/12/08 12:05:34;;;;;;;17.48;11.40;;;5.80;90.40;;;;;;4903726;28;85919;-80
2020/12/08 12:08:00;;;;;;;16.70;10.70;;;5.50;90.60;;;;;;4889228;28;87414;-80
2020/12/08 12:10:26;;;;;;;17.40;10.98;;;5.50;90.80;;;;;;4902690;28;86969;-80
2020/12/08 12:12:51;;;;;;;17.25;10.82;;;5.40;91.00;;;;;;4907159;28;87892;-80
2020/12/08 12:15:17;;;;;;;19.83;11.82;;;5.40;91.20;;;;;;4910041;28;87102;-80
2020/12/08 12:17:43;;;;;;;16.60;11.30;;;5.40;91.20;;;;;;4908045;28;87005;-80
2020/12/08 12:20:09;;;;;;;20.80;11.60;;;5.20;91.20;;;;;;4910119;28;87356;-80
2020/12/08 12:22:35;;;;;;;19.95;11.93;;;5.20;91.50;;;;;;4910464;28;86672;-80
2020/12/08 12:25:02;;;;;;;18.85;11.52;;;5.20;91.70;;;;;;4912606;28;86501;-80
2020/12/08 12:27:28;;;;;;;19.85;12.98;;;5.30;91.90;;;;;;4900016;28;87769;-81
2020/12/08 12:29:54;;;;;;;20.85;12.55;;;5.30;92.10;;;;;;4905625;28;86812;-80
2020/12/08 12:32:20;;;;;;;18.75;12.20;;;5.30;92.10;;;;;;4905850;28;87280;-81
2020/12/08 12:34:46;;;;;;;25.08;13.30;;;5.30;92.10;;;;;;4904552;28;87004;-80
2020/12/08 12:37:11;;;;;;;19.88;12.35;;;5.20;92.60;;;;;;4906198;28;89605;-80
2020/12/08 12:39:38;;;;;;;21.60;12.30;;;5.20;92.70;;;;;;4886814;28;88195;-80
2020/12/08 12:42:04;;;;;;;20.42;11.57;;;5.20;92.40;;;;;;4901832;28;86944;-81
2020/12/08 12:44:30;;;;;;;22.83;12.95;;;5.30;92.60;;;;;;4907358;28;86841;-80
2020/12/08 12:46:56;;;;;;;20.67;12.00;;;5.30;92.30;;;;;;4906746;28;87573;-80
2020/12/08 12:49:22;;;;;;;25.30;12.90;;;5.30;92.80;;;;;;4908143;28;86935;-80
2020/12/08 12:51:48;;;;;;;19.98;11.98;;;5.30;92.60;;;;;;4903948;28;87029;-80
2020/12/08 12:54:14;;;;;;;19.20;11.80;;;5.30;92.50;;;;;;4907655;28;86463;-81
2020/12/08 12:56:41;;;;;;;20.77;12.50;;;5.50;92.40;;;;;;4903421;28;87752;-80
2020/12/08 12:59:06;;;;;;;20.60;11.50;;;5.30;92.70;;;;;;4904273;28;86976;-81
2020/12/08 13:01:34;;;;;;;21.80;12.32;;;5.30;92.70;;;;;;4902598;28;87945;-80
2020/12/08 13:03:59;;;;;;;20.15;12.90;;;5.30;92.60;;;;;;4906245;28;87262;-80
2020/12/08 13:06:25;;;;;;;20.02;11.73;;;5.30;92.30;;;;;;4907696;28;87627;-81
2020/12/08 13:08:51;;;;;;;21.40;12.88;;;5.30;92.50;;;;;;4908340;28;87060;-81
2020/12/08 13:11:17;;;;;;;21.23;13.45;;;5.30;92.50;;;;;;4904888;28;86684;-81
2020/12/08 13:13:43;;;;;;;19.45;11.60;;;5.20;92.60;;;;;;4906507;28;87056;-81
2020/12/08 13:16:10;;;;;;;18.67;11.43;;;5.20;92.80;;;;;;4907060;28;86853;-81
2020/12/08 13:18:36;;;;;;;32.90;15.65;;;5.10;93.10;;;;;;4909319;28;88022;-81
2020/12/08 13:21:03;;;;;;;31.88;16.40;;;5.10;93.00;;;;;;4907755;28;86183;-81
2020/12/08 13:23:32;;;;;;;24.80;14.13;;;5.10;92.80;;;;;;4909208;28;86957;-81
2020/12/08 13:25:58;;;;;;;23.77;12.43;;;5.10;92.90;;;;;;4904796;28;88323;-81
2020/12/08 13:28:24;;;;;;;21.63;12.50;;;5.10;93.10;;;;;;4909847;28;89408;-81
2020/12/08 13:30:51;;;;;;;23.88;14.60;;;5.10;93.00;;;;;;4907412;28;86906;-81
2020/12/08 13:33:18;;;;;;;24.95;14.18;;;5.20;93.00;;;;;;4909559;28;86703;-80
2020/12/08 13:35:45;;;;;;;20.83;12.68;;;5.10;93.00;;;;;;4904773;28;87724;-80
2020/12/08 13:38:10;;;;;;;23.48;13.88;;;5.00;93.30;;;;;;4909348;28;86238;-81
2020/12/08 13:40:36;;;;;;;20.85;13.80;;;4.90;93.40;;;;;;4910732;28;86913;-81
2020/12/08 13:43:02;;;;;;;22.30;12.57;;;4.90;93.40;;;;;;4912471;28;85692;-81
2020/12/08 13:45:28;;;;;;;24.15;14.00;;;4.90;93.40;;;;;;4910175;28;88560;-81
2020/12/08 13:47:53;;;;;;;25.30;14.65;;;4.80;93.70;;;;;;4910355;28;86884;-80
2020/12/08 13:50:19;;;;;;;23.80;13.45;;;4.80;93.80;;;;;;4909938;28;88046;-81
2020/12/08 13:52:45;;;;;;;23.67;14.15;;;4.80;93.90;;;;;;4910564;28;87003;-81
2020/12/08 13:55:10;;;;;;;23.92;14.73;;;4.70;94.00;;;;;;4910952;28;88077;-81
2020/12/08 13:57:36;;;;;;;22.05;13.13;;;4.60;94.10;;;;;;4912724;28;86901;-81
2020/12/08 14:00:05;;;;;;;25.42;14.10;;;4.60;94.40;;;;;;4911767;28;86852;-81
2020/12/08 14:02:30;;;;;;;23.50;13.80;;;4.60;94.50;;;;;;4900250;28;86677;-81
2020/12/08 14:04:56;;;;;;;25.38;14.57;;;4.50;94.60;;;;;;4910613;28;87520;-81
2020/12/08 14:07:21;;;;;;;22.65;13.35;;;4.50;94.60;;;;;;4907116;28;87433;-81
2020/12/08 14:09:47;;;;;;;25.90;14.30;;;4.50;94.30;;;;;;4893087;28;86894;-81
2020/12/08 14:12:13;;;;;;;23.85;13.48;;;4.50;94.50;;;;;;4905740;28;86961;-81
2020/12/08 14:14:39;;;;;;;25.08;14.00;;;4.40;94.70;;;;;;4910867;28;87908;-81
2020/12/08 14:17:05;;;;;;;24.65;14.20;;;4.40;95.30;;;;;;4910386;28;87792;-81
2020/12/08 14:19:32;;;;;;;25.95;13.80;;;4.40;95.40;;;;;;4904309;28;86990;-80
2020/12/08 14:21:58;;;;;;;25.48;14.13;;;4.30;95.80;;;;;;4904829;28;86958;-81
2020/12/08 14:24:26;;;;;;;26.48;14.27;;;4.40;96.10;;;;;;4910075;28;87198;-81
2020/12/08 14:26:52;;;;;;;25.52;14.63;;;4.30;96.20;;;;;;4911266;28;87370;-80
2020/12/08 14:29:19;;;;;;;25.52;15.18;;;4.30;96.20;;;;;;4910399;28;86638;-81
2020/12/08 14:31:44;;;;;;;22.92;13.35;;;4.30;96.20;;;;;;4912065;28;86031;-81
2020/12/08 14:34:11;;;;;;;25.70;13.52;;;4.20;96.50;;;;;;4911130;28;87514;-81
2020/12/08 14:36:37;;;;;;;22.75;12.80;;;4.20;96.40;;;;;;4908239;28;86993;-81
2020/12/08 14:39:07;;;;;;;23.27;12.68;;;4.10;96.60;;;;;;4910437;28;88015;-81
2020/12/08 14:41:34;;;;;;;23.83;14.07;;;4.10;96.80;;;;;;4910560;28;87104;-81
2020/12/08 14:44:00;;;;;;;25.45;13.70;;;4.10;97.00;;;;;;4910695;28;87001;-80
2020/12/08 14:46:33;;;;;;;23.58;13.25;;;4.30;96.50;;;;;;4892902;28;90030;-81
2020/12/08 14:49:00;;;;;;;21.67;12.18;;;4.10;96.60;;;;;;4911268;28;86950;-81
2020/12/08 14:51:27;;;;;;;23.25;13.60;;;4.10;96.60;;;;;;4906786;28;86745;-81
2020/12/08 14:53:54;;;;;;;20.73;11.88;;;4.10;96.60;;;;;;4909554;28;87157;-81
2020/12/08 14:56:25;;;;;;;20.73;11.77;;;4.40;96.70;;;;;;4911648;28;86467;-80
2020/12/08 14:58:52;;;;;;;21.38;12.63;;;4.00;96.80;;;;;;4909907;28;87043;-81
2020/12/08 15:01:18;;;;;;;22.95;13.95;;;4.10;96.70;;;;;;4911716;28;86412;-80
2020/12/08 15:03:44;;;;;;;23.85;12.80;;;4.10;96.90;;;;;;4909771;28;88684;-80
2020/12/08 15:06:11;;;;;;;26.27;13.45;;;4.00;96.80;;;;;;4911026;28;87765;-82
2020/12/08 15:08:37;;;;;;;21.52;12.00;;;4.00;96.80;;;;;;4893043;28;86959;-81
2020/12/08 15:11:04;;;;;;;25.50;13.60;;;4.00;97.00;;;;;;4910362;28;87036;-80
2020/12/08 15:13:30;;;;;;;22.42;12.25;;;4.10;97.10;;;;;;4899958;28;87823;-80
2020/12/08 15:15:57;;;;;;;25.02;13.35;;;4.00;97.20;;;;;;4906513;28;87230;-81
2020/12/08 15:18:26;;;;;;;23.10;13.20;;;4.00;97.30;;;;;;4908350;28;86977;-81
2020/12/08 15:20:52;;;;;;;23.13;12.80;;;4.10;97.70;;;;;;4893320;28;85975;-81
2020/12/08 15:23:18;;;;;;;23.60;13.20;;;4.10;97.80;;;;;;4909515;28;87370;-80
2020/12/08 15:25:44;;;;;;;23.70;13.15;;;4.10;97.90;;;;;;4909177;28;87029;-80
2020/12/08 15:28:11;;;;;;;24.88;13.73;;;4.00;98.00;;;;;;4908886;28;87759;-81
2020/12/08 15:30:37;;;;;;;22.13;12.63;;;3.90;98.00;;;;;;4908413;28;87008;-81
2020/12/08 15:33:02;;;;;;;20.45;12.80;;;3.90;98.20;;;;;;4905840;28;87113;-81
2020/12/08 15:35:28;;;;;;;22.55;13.10;;;3.90;98.50;;;;;;4903774;28;87084;-81
2020/12/08 15:37:55;;;;;;;24.00;13.55;;;3.80;98.80;;;;;;4908860;28;86796;-81
2020/12/08 15:40:21;;;;;;;22.80;12.00;;;3.90;98.80;;;;;;4909306;28;86810;-80
2020/12/08 15:42:48;;;;;;;26.90;14.93;;;3.80;98.80;;;;;;4885406;28;90233;-81
2020/12/08 15:45:14;;;;;;;23.85;13.07;;;3.90;98.30;;;;;;4907968;28;87371;-81
2020/12/08 15:47:41;;;;;;;23.90;13.43;;;3.80;98.30;;;;;;4905453;28;87085;-81
2020/12/08 15:50:09;;;;;;;25.42;14.82;;;3.90;98.50;;;;;;4908114;28;86622;-82
2020/12/08 15:52:39;;;;;;;25.10;14.05;;;3.90;99.20;;;;;;4906602;28;88259;-82
2020/12/08 15:55:07;;;;;;;24.92;13.73;;;4.00;99.20;;;;;;4908024;28;87936;-81
2020/12/08 15:57:35;;;;;;;28.42;14.48;;;4.00;99.20;;;;;;4907082;28;86852;-81
2020/12/08 16:00:05;;;;;;;28.20;15.38;;;4.20;98.50;;;;;;4907676;28;87835;-80
2020/12/08 16:02:31;;;;;;;28.35;14.65;;;;;;;;;;4905905;28;87701;-79
2020/12/08 16:04:57;;;;;;;29.15;15.02;;;3.80;99.70;;;;;;4907435;28;87518;-80
2020/12/08 16:07:22;;;;;;;27.70;15.60;;;4.00;99.80;;;;;;4907414;28;86828;-81
2020/12/08 16:09:48;;;;;;;32.08;16.35;;;4.10;99.20;;;;;;4904389;28;86359;-80
2020/12/08 16:12:14;;;;;;;32.40;16.55;;;4.00;98.60;;;;;;4908222;28;87546;-81
2020/12/08 16:14:40;;;;;;;27.73;15.85;;;4.00;98.40;;;;;;4911537;28;86905;-81
2020/12/08 16:17:06;;;;;;;30.27;14.70;;;4.00;98.40;;;;;;4910735;28;87916;-80
2020/12/08 16:19:32;;;;;;;26.00;14.60;;;4.10;99.10;;;;;;4918194;28;87410;-81
2020/12/08 16:21:58;;;;;;;27.67;14.65;;;4.10;99.30;;;;;;4919133;28;87307;-80
2020/12/08 16:24:26;;;;;;;28.25;14.02;;;4.20;98.50;;;;;;4915107;28;87063;-81
2020/12/08 16:26:52;;;;;;;32.42;16.05;;;4.20;98.70;;;;;;4898950;28;86710;-81